createdAt,value
2022-10-08T00:01:21.295Z,49.87
2022-10-08T00:04:24.508Z,49.98
2022-10-08T00:07:27.718Z,50.30
2022-10-08T00:10:33.097Z,50.39
2022-10-08T00:13:41.846Z,49.99
2022-10-08T00:16:45.025Z,49.54
2022-10-08T00:19:48.288Z,49.64
2022-10-08T00:22:51.586Z,49.61
2022-10-08T00:25:56.223Z,49.77
2022-10-08T00:29:01.749Z,49.60
2022-10-08T00:32:05.039Z,49.22
2022-10-08T00:35:08.726Z,49.14
2022-10-08T00:38:11.912Z,48.89
2022-10-08T00:41:20.875Z,48.61
2022-10-08T00:45:00.657Z,49.35
2022-10-08T00:48:05.393Z,49.65
2022-10-08T00:51:09.583Z,49.46
2022-10-08T00:54:14.464Z,50.07
2022-10-08T00:57:19.826Z,50.84
2022-10-08T01:00:25.586Z,51.01
2022-10-08T01:03:28.789Z,50.48
2022-10-08T01:06:39.105Z,49.68
2022-10-08T01:09:48.003Z,49.85
2022-10-08T01:13:05.562Z,49.38
2022-10-08T01:16:19.740Z,49.17
2022-10-08T01:19:49.100Z,50.49
2022-10-08T01:23:10.265Z,50.10
2022-10-08T01:26:37.229Z,50.05
2022-10-08T01:29:47.689Z,50.88
2022-10-08T01:32:56.334Z,50.10
2022-10-08T01:36:04.296Z,49.65
2022-10-08T01:39:11.324Z,49.26
2022-10-08T01:42:15.250Z,49.19
2022-10-08T01:45:25.121Z,50.10
2022-10-08T01:48:34.141Z,49.83
2022-10-08T01:51:41.866Z,49.49
2022-10-08T01:54:49.878Z,49.29
2022-10-08T01:57:57.538Z,49.14
2022-10-08T02:01:11.630Z,49.63
2022-10-08T02:04:32.547Z,49.47
2022-10-08T02:07:38.977Z,50.00
2022-10-08T02:10:42.820Z,49.79
2022-10-08T02:13:46.538Z,49.77
2022-10-08T02:16:55.879Z,50.59
2022-10-08T02:20:05.844Z,50.19
2022-10-08T02:23:14.761Z,50.41
2022-10-08T02:26:23.386Z,50.46
2022-10-08T02:29:33.015Z,50.83
2022-10-08T02:32:48.943Z,51.04
2022-10-08T02:35:54.848Z,50.70
2022-10-08T02:39:04.034Z,50.72
2022-10-08T02:42:12.226Z,51.82
2022-10-08T02:45:19.581Z,52.20
2022-10-08T02:48:29.393Z,51.42
2022-10-08T02:51:35.431Z,51.45
2022-10-08T02:54:41.423Z,52.49
2022-10-08T02:57:47.661Z,52.78
2022-10-08T03:00:56.031Z,52.13
2022-10-08T03:04:05.564Z,52.57
2022-10-08T03:07:10.382Z,53.37
2022-10-08T03:10:14.443Z,52.50
2022-10-08T03:13:19.574Z,52.34
2022-10-08T03:16:25.502Z,51.56
2022-10-08T03:19:30.372Z,51.98
2022-10-08T03:22:35.003Z,52.10
2022-10-08T03:25:38.214Z,51.92
2022-10-08T03:28:41.489Z,51.64
2022-10-08T03:31:44.765Z,51.79
2022-10-08T03:34:49.368Z,52.13
2022-10-08T03:37:54.046Z,53.20
2022-10-08T03:41:00.252Z,53.29
2022-10-08T03:44:03.494Z,52.90
2022-10-08T03:47:06.904Z,52.88
2022-10-08T03:50:11.727Z,53.01
2022-10-08T03:53:15.015Z,53.03
2022-10-08T03:56:20.168Z,53.71
2022-10-08T03:59:23.612Z,53.47
2022-10-08T04:02:27.006Z,54.08
2022-10-08T04:05:31.796Z,54.10
2022-10-08T04:08:35.662Z,54.81
2022-10-08T04:11:39.163Z,53.81
2022-10-08T04:14:42.424Z,54.65
2022-10-08T04:17:45.804Z,56.75
2022-10-08T04:20:50.435Z,55.20
2022-10-08T04:23:53.675Z,56.32
2022-10-08T04:26:57.084Z,55.95
2022-10-08T04:30:00.269Z,55.16
2022-10-08T04:33:03.547Z,55.08
2022-10-08T04:36:11.151Z,55.48
2022-10-08T04:39:14.364Z,54.91
2022-10-08T04:42:17.759Z,55.92
2022-10-08T04:45:20.950Z,55.60
2022-10-08T04:48:24.174Z,55.98
2022-10-08T04:51:29.431Z,55.83
2022-10-08T04:54:32.706Z,56.03
2022-10-08T04:57:35.868Z,55.84
2022-10-08T05:00:39.169Z,56.31
2022-10-08T05:03:43.993Z,56.15
2022-10-08T05:06:48.571Z,55.25
2022-10-08T05:09:51.834Z,54.41
2022-10-08T05:12:56.267Z,54.18
2022-10-08T05:16:04.587Z,54.26
2022-10-08T05:19:07.951Z,54.58
2022-10-08T05:22:12.610Z,54.43
2022-10-08T05:25:15.971Z,54.09
2022-10-08T05:28:19.209Z,53.30
2022-10-08T05:31:22.527Z,53.32
2022-10-08T05:34:26.191Z,53.16
2022-10-08T05:37:30.761Z,52.01
2022-10-08T05:40:34.041Z,51.99
2022-10-08T05:43:37.335Z,51.70
2022-10-08T05:46:40.990Z,51.85
2022-10-08T05:49:44.279Z,51.45
2022-10-08T05:52:49.290Z,50.06
2022-10-08T05:56:01.084Z,49.49
2022-10-08T05:59:04.322Z,49.19
2022-10-08T06:02:08.147Z,48.84
2022-10-08T06:05:11.488Z,48.19
2022-10-08T06:08:16.090Z,47.19
2022-10-08T06:11:19.354Z,46.45
2022-10-08T06:14:24.389Z,45.92
2022-10-08T06:17:27.569Z,45.41
2022-10-08T06:20:32.163Z,45.20
2022-10-08T06:23:37.835Z,45.06
2022-10-08T06:26:43.405Z,44.79
2022-10-08T06:29:46.649Z,45.06
2022-10-08T06:32:50.033Z,44.04
2022-10-08T06:35:53.836Z,43.15
2022-10-08T06:38:59.598Z,43.05
2022-10-08T06:42:02.784Z,42.55
2022-10-08T06:45:13.186Z,43.47
2022-10-08T06:48:16.455Z,42.52
2022-10-08T06:51:20.652Z,42.29
2022-10-08T06:54:27.488Z,42.42
2022-10-08T06:57:30.970Z,42.68
2022-10-08T07:00:34.574Z,42.11
2022-10-08T07:03:38.237Z,41.81
2022-10-08T07:06:41.470Z,41.31
2022-10-08T07:09:46.050Z,41.08
2022-10-08T07:12:49.634Z,40.57
2022-10-08T07:15:53.423Z,40.32
2022-10-08T07:18:58.943Z,40.14
2022-10-08T07:22:02.355Z,39.19
2022-10-08T07:25:07.541Z,38.80
2022-10-08T07:28:10.823Z,38.04
2022-10-08T07:31:16.199Z,38.63
2022-10-08T07:34:19.519Z,37.44
2022-10-08T07:37:22.749Z,37.42
2022-10-08T07:40:27.428Z,36.90
2022-10-08T07:43:30.669Z,37.10
2022-10-08T07:46:35.601Z,36.99
2022-10-08T07:49:38.867Z,36.80
2022-10-08T07:52:42.120Z,36.35
2022-10-08T07:55:46.834Z,35.38
2022-10-08T07:58:50.895Z,35.80
2022-10-08T08:01:54.241Z,35.67
2022-10-08T08:04:58.675Z,34.68
2022-10-08T08:08:01.891Z,34.41
2022-10-08T08:11:08.689Z,34.76
2022-10-08T08:14:12.047Z,34.51
2022-10-08T08:17:15.303Z,33.69
2022-10-08T08:20:18.498Z,33.33
2022-10-08T08:23:21.703Z,33.37
2022-10-08T08:26:28.862Z,33.01
2022-10-08T08:29:32.312Z,32.62
2022-10-08T08:32:35.499Z,32.51
2022-10-08T08:35:38.757Z,31.39
2022-10-08T08:38:42.046Z,31.29
2022-10-08T08:42:14.760Z,31.44
2022-10-08T08:45:46.828Z,31.76
2022-10-08T08:48:54.554Z,31.82
2022-10-08T08:51:59.573Z,31.30
2022-10-08T08:55:03.029Z,31.43
2022-10-08T08:58:27.263Z,31.75
2022-10-08T09:01:34.889Z,31.70
2022-10-08T09:04:45.480Z,31.75
2022-10-08T09:07:52.911Z,31.89
2022-10-08T09:10:58.437Z,31.82
2022-10-08T09:14:16.799Z,31.59
2022-10-08T09:17:21.776Z,32.26
2022-10-08T09:20:26.473Z,31.41
2022-10-08T09:23:29.684Z,31.68
2022-10-08T09:26:35.076Z,31.75
2022-10-08T09:29:39.800Z,31.58
2022-10-08T09:32:43.099Z,31.76
2022-10-08T09:35:49.834Z,31.28
2022-10-08T09:38:59.719Z,30.95
2022-10-08T09:42:14.174Z,30.94
2022-10-08T09:45:35.286Z,30.86
2022-10-08T09:48:39.671Z,30.63
2022-10-08T09:51:43.675Z,31.13
2022-10-08T09:54:49.862Z,30.67
2022-10-08T09:57:56.715Z,30.30
2022-10-08T10:01:07.716Z,30.66
2022-10-08T10:04:20.962Z,30.43
2022-10-08T10:07:24.552Z,30.57
2022-10-08T10:10:33.000Z,30.64
2022-10-08T10:13:39.017Z,30.58
2022-10-08T10:16:47.193Z,29.68
2022-10-08T10:19:55.089Z,29.65
2022-10-08T10:23:06.502Z,29.13
2022-10-08T10:26:14.468Z,28.84
2022-10-08T10:29:21.328Z,28.74
2022-10-08T10:32:32.317Z,28.91
2022-10-08T10:35:46.842Z,28.03
2022-10-08T10:38:57.114Z,27.26
2022-10-08T10:42:08.499Z,26.63
2022-10-08T10:45:21.535Z,27.26
2022-10-08T10:48:26.290Z,27.66
2022-10-08T10:51:53.464Z,28.05
2022-10-08T10:55:09.577Z,28.87
2022-10-08T10:58:32.259Z,28.92
2022-10-08T11:01:43.815Z,28.78
2022-10-08T11:05:01.511Z,28.04
2022-10-08T11:08:12.948Z,28.38
2022-10-08T11:11:32.258Z,28.36
2022-10-08T11:14:45.235Z,28.04
2022-10-08T11:18:15.942Z,28.56
2022-10-08T11:21:36.431Z,28.21
2022-10-08T11:25:01.658Z,27.99
2022-10-08T11:28:18.334Z,28.54
2022-10-08T11:31:32.858Z,28.38
2022-10-08T11:34:38.629Z,28.65
2022-10-08T11:37:50.233Z,29.20
2022-10-08T11:40:59.994Z,28.49
2022-10-08T11:44:05.548Z,28.50
2022-10-08T11:47:37.547Z,27.92
2022-10-08T11:50:41.100Z,28.12
2022-10-08T11:54:00.753Z,28.21
2022-10-08T11:57:14.848Z,28.05
2022-10-08T12:00:33.551Z,27.81
2022-10-08T12:03:39.216Z,27.82
2022-10-08T12:06:42.590Z,28.01
2022-10-08T12:10:34.063Z,28.05
2022-10-08T12:13:38.642Z,27.45
2022-10-08T12:17:09.847Z,26.40
2022-10-08T12:20:22.333Z,26.87
2022-10-08T12:23:39.869Z,27.78
2022-10-08T12:27:23.674Z,28.06
2022-10-08T12:30:48.339Z,27.66
2022-10-08T12:34:04.021Z,27.71
2022-10-08T12:37:16.609Z,27.98
2022-10-08T12:40:31.824Z,27.66
2022-10-08T12:43:42.342Z,28.20
2022-10-08T12:46:55.968Z,27.75
2022-10-08T12:50:07.047Z,28.57
2022-10-08T12:53:15.052Z,29.73
2022-10-08T12:56:23.357Z,29.58
2022-10-08T12:59:31.586Z,28.82
2022-10-08T13:02:41.176Z,29.27
2022-10-08T13:05:45.162Z,29.77
2022-10-08T13:08:50.826Z,29.70
2022-10-08T13:11:58.235Z,29.97
2022-10-08T13:15:09.041Z,29.42
2022-10-08T13:18:23.163Z,28.57
2022-10-08T13:21:38.122Z,28.18
2022-10-08T13:24:42.710Z,28.16
2022-10-08T13:27:46.297Z,27.61
2022-10-08T13:30:52.160Z,27.83
2022-10-08T13:33:56.811Z,27.70
2022-10-08T13:37:03.127Z,28.68
2022-10-08T13:40:19.569Z,28.21
2022-10-08T13:43:23.406Z,27.77
2022-10-08T13:46:26.714Z,28.38
2022-10-08T13:49:33.262Z,28.40
2022-10-08T13:52:37.094Z,28.15
2022-10-08T13:55:44.655Z,28.27
2022-10-08T13:58:47.857Z,28.21
2022-10-08T14:01:51.793Z,27.79
2022-10-08T14:04:56.456Z,28.31
2022-10-08T14:08:04.175Z,28.45
2022-10-08T14:11:07.656Z,28.58
2022-10-08T14:14:13.289Z,28.66
2022-10-08T14:17:16.532Z,28.89
2022-10-08T14:20:21.296Z,29.44
2022-10-08T14:23:24.541Z,29.81
2022-10-08T14:26:28.652Z,29.98
2022-10-08T14:29:32.932Z,29.95
2022-10-08T14:32:36.207Z,29.64
2022-10-08T14:35:40.837Z,29.36
2022-10-08T14:38:44.271Z,29.70
2022-10-08T14:41:47.528Z,29.43
2022-10-08T14:44:52.013Z,29.91
2022-10-08T14:47:55.137Z,30.43
2022-10-08T14:51:00.060Z,30.50
2022-10-08T14:54:03.303Z,30.49
2022-10-08T14:57:06.498Z,30.49
2022-10-08T15:00:10.769Z,30.85
2022-10-08T15:03:13.993Z,31.36
2022-10-08T15:06:18.584Z,32.11
2022-10-08T15:09:21.829Z,32.76
2022-10-08T15:12:25.032Z,33.13
2022-10-08T15:15:28.258Z,33.38
2022-10-08T15:18:32.750Z,33.84
2022-10-08T15:21:37.692Z,34.01
2022-10-08T15:24:41.426Z,33.62
2022-10-08T15:27:44.844Z,34.15
2022-10-08T15:30:48.131Z,34.67
2022-10-08T15:33:52.914Z,35.33
2022-10-08T15:36:57.502Z,35.14
2022-10-08T15:40:00.771Z,35.54
2022-10-08T15:43:04.039Z,35.50
2022-10-08T15:46:11.264Z,36.27
2022-10-08T15:49:14.930Z,36.62
2022-10-08T15:52:21.277Z,36.40
2022-10-08T15:55:24.512Z,36.44
2022-10-08T15:58:49.545Z,36.84
2022-10-08T16:01:50.894Z,36.98
2022-10-08T16:04:54.260Z,37.38
2022-10-08T16:07:58.842Z,37.73
2022-10-08T16:11:11.675Z,37.97
2022-10-08T16:14:16.363Z,38.51
2022-10-08T16:17:19.588Z,38.35
2022-10-08T16:20:22.875Z,38.70
2022-10-08T16:23:27.477Z,38.61
2022-10-08T16:26:32.343Z,38.73
2022-10-08T16:29:35.697Z,38.85
2022-10-08T16:32:38.888Z,38.71
2022-10-08T16:35:42.072Z,39.04
2022-10-08T16:38:46.701Z,39.20
2022-10-08T16:41:50.531Z,38.77
2022-10-08T16:44:53.754Z,38.91
2022-10-08T16:47:56.924Z,39.09
2022-10-08T16:51:03.749Z,38.82
2022-10-08T16:54:11.522Z,38.96
2022-10-08T16:57:14.684Z,39.05
2022-10-08T17:00:18.788Z,38.97
2022-10-08T17:03:22.863Z,38.96
2022-10-08T17:06:27.805Z,39.20
2022-10-08T17:09:32.737Z,39.47
2022-10-08T17:12:35.940Z,39.60
2022-10-08T17:15:39.156Z,39.33
2022-10-08T17:18:44.290Z,39.35
2022-10-08T17:21:47.483Z,39.48
2022-10-08T17:24:52.174Z,39.28
2022-10-08T17:27:55.300Z,39.26
2022-10-08T17:31:00.189Z,39.18
2022-10-08T17:34:05.232Z,39.05
2022-10-08T17:37:08.490Z,39.13
2022-10-08T17:40:13.116Z,39.07
2022-10-08T17:43:16.362Z,39.59
2022-10-08T17:46:22.388Z,39.95
2022-10-08T17:49:25.640Z,40.30
2022-10-08T17:52:28.829Z,43.16
2022-10-08T17:55:33.713Z,43.64
2022-10-08T17:58:37.155Z,43.80
2022-10-08T18:01:44.820Z,44.03
2022-10-08T18:04:48.688Z,43.94
2022-10-08T18:07:51.863Z,43.35
2022-10-08T18:10:56.420Z,43.83
2022-10-08T18:14:00.089Z,44.08
2022-10-08T18:17:06.258Z,43.94
2022-10-08T18:20:11.750Z,43.75
2022-10-08T18:23:14.962Z,43.56
2022-10-08T18:26:21.438Z,43.31
2022-10-08T18:29:24.848Z,43.61
2022-10-08T18:32:28.079Z,43.40
2022-10-08T18:35:31.338Z,43.54
2022-10-08T18:38:34.537Z,43.72
2022-10-08T18:41:41.380Z,43.95
2022-10-08T18:44:44.552Z,43.95
2022-10-08T18:47:48.348Z,43.42
2022-10-08T18:50:51.566Z,43.97
2022-10-08T18:53:56.309Z,43.92
2022-10-08T18:57:01.104Z,43.85
2022-10-08T19:00:04.979Z,44.19
2022-10-08T19:03:08.180Z,44.15
2022-10-08T19:06:11.778Z,44.33
2022-10-08T19:09:15.904Z,44.05
2022-10-08T19:12:20.447Z,44.09
2022-10-08T19:15:23.679Z,43.71
2022-10-08T19:18:26.977Z,44.45
2022-10-08T19:21:31.561Z,44.44
2022-10-08T19:24:38.503Z,44.63
2022-10-08T19:27:45.388Z,44.79
2022-10-08T19:30:48.609Z,44.84
2022-10-08T19:33:52.943Z,44.64
2022-10-08T19:36:56.224Z,44.99
2022-10-08T19:39:59.477Z,44.95
2022-10-08T19:43:04.327Z,45.23
2022-10-08T19:46:08.514Z,45.17
2022-10-08T19:49:12.388Z,45.27
2022-10-08T19:52:16.066Z,45.36
2022-10-08T19:55:19.330Z,45.66
2022-10-08T19:58:23.970Z,45.27
2022-10-08T20:01:29.712Z,45.65
2022-10-08T20:04:33.225Z,45.81
2022-10-08T20:07:36.489Z,45.95
2022-10-08T20:10:41.111Z,45.62
2022-10-08T20:13:47.611Z,46.16
2022-10-08T20:16:50.787Z,45.23
2022-10-08T20:20:01.609Z,45.55
2022-10-08T20:23:17.140Z,45.28
2022-10-08T20:26:23.059Z,45.77
2022-10-08T20:29:30.953Z,45.96
2022-10-08T20:32:34.499Z,45.40
2022-10-08T20:35:37.733Z,45.49
2022-10-08T20:38:42.192Z,45.20
2022-10-08T20:41:45.782Z,45.25
2022-10-08T20:44:50.437Z,44.56
2022-10-08T20:47:53.567Z,44.02
2022-10-08T20:51:02.993Z,44.44
2022-10-08T20:54:08.651Z,44.04
2022-10-08T20:57:11.879Z,44.49
2022-10-08T21:00:16.956Z,44.58
2022-10-08T21:03:20.269Z,44.79
2022-10-08T21:06:25.893Z,46.06
2022-10-08T21:09:29.153Z,46.62
2022-10-08T21:12:33.412Z,46.08
2022-10-08T21:15:37.991Z,46.13
2022-10-08T21:18:41.518Z,46.40
2022-10-08T21:21:44.679Z,46.64
2022-10-08T21:24:47.880Z,46.64
2022-10-08T21:27:51.020Z,47.08
2022-10-08T21:30:55.855Z,46.41
2022-10-08T21:33:59.577Z,45.77
2022-10-08T21:37:03.209Z,45.73
2022-10-08T21:40:07.182Z,45.98
2022-10-08T21:43:10.391Z,45.92
2022-10-08T21:46:16.647Z,46.45
2022-10-08T21:49:21.107Z,46.63
2022-10-08T21:52:24.334Z,46.91
2022-10-08T21:55:27.781Z,46.98
2022-10-08T21:58:32.775Z,47.00
2022-10-08T22:01:39.377Z,46.96
2022-10-08T22:04:42.704Z,46.82
2022-10-08T22:07:45.883Z,47.11
2022-10-08T22:10:49.508Z,46.95
2022-10-08T22:13:53.359Z,47.64
2022-10-08T22:16:58.047Z,48.01
2022-10-08T22:20:01.572Z,47.94
2022-10-08T22:23:04.853Z,47.72
2022-10-08T22:26:10.083Z,47.38
2022-10-08T22:29:13.778Z,47.54
2022-10-08T22:32:18.600Z,47.11
2022-10-08T22:35:21.896Z,48.03
2022-10-08T22:38:25.074Z,48.75
2022-10-08T22:41:30.113Z,47.97
2022-10-08T22:44:33.325Z,48.07
2022-10-08T22:47:37.859Z,48.07
2022-10-08T22:50:41.102Z,48.56
2022-10-08T22:53:44.862Z,48.36
2022-10-08T22:56:48.090Z,49.55
2022-10-08T22:59:51.239Z,48.75
2022-10-08T23:02:55.947Z,49.25
2022-10-08T23:06:07.940Z,49.50
2022-10-08T23:09:13.529Z,50.25
2022-10-08T23:12:16.709Z,50.79
2022-10-08T23:15:19.930Z,50.83
2022-10-08T23:18:24.595Z,50.98
2022-10-08T23:21:29.000Z,51.30
2022-10-08T23:24:32.272Z,51.34
2022-10-08T23:27:35.436Z,52.61
2022-10-08T23:30:43.359Z,51.73
2022-10-08T23:33:50.211Z,51.51
2022-10-08T23:36:53.410Z,51.70
2022-10-08T23:39:58.031Z,51.61
2022-10-08T23:43:01.361Z,52.25
2022-10-08T23:46:04.836Z,51.88
2022-10-08T23:49:09.713Z,51.71
2022-10-08T23:52:13.046Z,51.64
2022-10-08T23:55:16.332Z,51.44
2022-10-08T23:58:19.787Z,52.35
